sensor_id;sensor_type;location;lat;lon;timestamp;temperature;humidity
19665;DHT22;9980;51.020;7.772;2022-10-30T00:00:16;14.50;99.90
19665;DHT22;9980;51.020;7.772;2022-10-30T00:02:50;14.50;99.90
19665;DHT22;9980;51.020;7.772;2022-10-30T00:05:47;14.50;99.90
19665;DHT22;9980;51.020;7.772;2022-10-30T00:08:28;14.40;99.90
19665;DHT22;9980;51.020;7.772;2022-10-30T00:11:15;14.40;99.90
19665;DHT22;9980;51.020;7.772;2022-10-30T00:13:55;14.40;99.90
19665;DHT22;9980;51.020;7.772;2022-10-30T00:16:42;14.40;99.90
19665;DHT22;9980;51.020;7.772;2022-10-30T00:19:22;14.40;99.90
19665;DHT22;9980;51.020;7.772;2022-10-30T00:22:09;14.40;99.90
19665;DHT22;9980;51.020;7.772;2022-10-30T00:24:50;14.30;99.90
19665;DHT22;9980;51.020;7.772;2022-10-30T00:27:37;14.30;99.90
19665;DHT22;9980;51.020;7.772;2022-10-30T00:30:17;14.30;99.90
19665;DHT22;9980;51.020;7.772;2022-10-30T00:33:05;14.30;99.90
19665;DHT22;9980;51.020;7.772;2022-10-30T00:35:48;14.30;99.90
19665;DHT22;9980;51.020;7.772;2022-10-30T00:38:42;14.20;99.90
19665;DHT22;9980;51.020;7.772;2022-10-30T00:41:21;14.20;99.90
19665;DHT22;9980;51.020;7.772;2022-10-30T00:44:36;14.20;99.90
19665;DHT22;9980;51.020;7.772;2022-10-30T00:47:19;14.20;99.90
19665;DHT22;9980;51.020;7.772;2022-10-30T00:50:25;14.20;99.90
19665;DHT22;9980;51.020;7.772;2022-10-30T00:53:12;14.10;99.90
19665;DHT22;9980;51.020;7.772;2022-10-30T00:56:10;14.10;99.90
19665;DHT22;9980;51.020;7.772;2022-10-30T00:58:59;14.10;99.90
19665;DHT22;9980;51.020;7.772;2022-10-30T01:01:49;14.10;99.90
19665;DHT22;9980;51.020;7.772;2022-10-30T01:04:34;14.00;99.90
19665;DHT22;9980;51.020;7.772;2022-10-30T01:07:23;14.00;99.90
19665;DHT22;9980;51.020;7.772;2022-10-30T01:10:04;14.00;99.90
19665;DHT22;9980;51.020;7.772;2022-10-30T01:12:52;13.90;99.90
19665;DHT22;9980;51.020;7.772;2022-10-30T01:15:41;13.90;99.90
19665;DHT22;9980;51.020;7.772;2022-10-30T01:22:31;13.90;99.90
19665;DHT22;9980;51.020;7.772;2022-10-30T01:26:10;13.80;99.90
19665;DHT22;9980;51.020;7.772;2022-10-30T01:32:48;13.70;99.90
19665;DHT22;9980;51.020;7.772;2022-10-30T01:35:48;13.70;99.90
19665;DHT22;9980;51.020;7.772;2022-10-30T01:38:59;13.70;99.90
19665;DHT22;9980;51.020;7.772;2022-10-30T01:41:35;13.60;99.90
19665;DHT22;9980;51.020;7.772;2022-10-30T01:44:32;13.60;99.90
19665;DHT22;9980;51.020;7.772;2022-10-30T01:54:22;13.50;99.90
19665;DHT22;9980;51.020;7.772;2022-10-30T01:57:40;13.40;99.90
19665;DHT22;9980;51.020;7.772;2022-10-30T02:00:27;13.30;99.90
19665;DHT22;9980;51.020;7.772;2022-10-30T02:03:14;13.40;99.90
19665;DHT22;9980;51.020;7.772;2022-10-30T02:05:55;13.30;99.90
19665;DHT22;9980;51.020;7.772;2022-10-30T02:08:41;13.30;99.90
19665;DHT22;9980;51.020;7.772;2022-10-30T02:11:23;13.20;99.90
19665;DHT22;9980;51.020;7.772;2022-10-30T02:14:27;13.20;99.90
19665;DHT22;9980;51.020;7.772;2022-10-30T02:17:07;13.10;99.90
19665;DHT22;9980;51.020;7.772;2022-10-30T02:20:03;13.10;99.90
19665;DHT22;9980;51.020;7.772;2022-10-30T02:22:36;13.10;99.90
19665;DHT22;9980;51.020;7.772;2022-10-30T02:25:38;13.00;99.90
19665;DHT22;9980;51.020;7.772;2022-10-30T02:28:18;13.00;99.90
19665;DHT22;9980;51.020;7.772;2022-10-30T02:31:05;13.00;99.90
19665;DHT22;9980;51.020;7.772;2022-10-30T02:33:47;12.90;99.90
19665;DHT22;9980;51.020;7.772;2022-10-30T02:36:34;12.90;99.90
19665;DHT22;9980;51.020;7.772;2022-10-30T02:39:15;12.80;99.90
19665;DHT22;9980;51.020;7.772;2022-10-30T02:42:02;12.80;99.90
19665;DHT22;9980;51.020;7.772;2022-10-30T02:44:44;12.80;99.90
19665;DHT22;9980;51.020;7.772;2022-10-30T02:47:38;12.80;99.90
19665;DHT22;9980;51.020;7.772;2022-10-30T02:50:11;12.70;99.90
19665;DHT22;9980;51.020;7.772;2022-10-30T02:53:05;12.70;99.90
19665;DHT22;9980;51.020;7.772;2022-10-30T02:55:38;12.70;99.90
19665;DHT22;9980;51.020;7.772;2022-10-30T02:58:32;12.70;99.90
19665;DHT22;9980;51.020;7.772;2022-10-30T03:01:16;12.70;99.90
19665;DHT22;9980;51.020;7.772;2022-10-30T03:04:11;12.70;99.90
19665;DHT22;9980;51.020;7.772;2022-10-30T03:06:44;12.70;99.90
19665;DHT22;9980;51.020;7.772;2022-10-30T03:09:40;12.70;99.90
19665;DHT22;9980;51.020;7.772;2022-10-30T03:12:13;12.70;99.90
19665;DHT22;9980;51.020;7.772;2022-10-30T03:14:53;12.70;99.90
19665;DHT22;9980;51.020;7.772;2022-10-30T03:17:47;12.70;99.90
19665;DHT22;9980;51.020;7.772;2022-10-30T03:20:23;12.70;99.90
19665;DHT22;9980;51.020;7.772;2022-10-30T03:23:17;12.80;99.90
19665;DHT22;9980;51.020;7.772;2022-10-30T03:25:52;12.70;99.90
19665;DHT22;9980;51.020;7.772;2022-10-30T03:28:54;12.80;99.90
19665;DHT22;9980;51.020;7.772;2022-10-30T03:31:29;12.80;99.90
19665;DHT22;9980;51.020;7.772;2022-10-30T03:34:26;12.80;99.90
19665;DHT22;9980;51.020;7.772;2022-10-30T03:37:04;12.80;99.90
19665;DHT22;9980;51.020;7.772;2022-10-30T03:39:57;12.80;99.90
19665;DHT22;9980;51.020;7.772;2022-10-30T03:42:32;12.80;99.90
19665;DHT22;9980;51.020;7.772;2022-10-30T03:45:26;12.80;99.90
19665;DHT22;9980;51.020;7.772;2022-10-30T03:48:07;12.80;99.90
19665;DHT22;9980;51.020;7.772;2022-10-30T03:51:02;12.80;99.90
19665;DHT22;9980;51.020;7.772;2022-10-30T03:53:45;12.80;99.90
19665;DHT22;9980;51.020;7.772;2022-10-30T03:56:32;12.70;99.90
19665;DHT22;9980;51.020;7.772;2022-10-30T03:59:15;12.70;99.90
19665;DHT22;9980;51.020;7.772;2022-10-30T04:02:28;12.70;99.90
19665;DHT22;9980;51.020;7.772;2022-10-30T04:05:08;12.70;99.90
19665;DHT22;9980;51.020;7.772;2022-10-30T04:08:05;12.70;99.90
19665;DHT22;9980;51.020;7.772;2022-10-30T04:10:44;12.70;99.90
19665;DHT22;9980;51.020;7.772;2022-10-30T04:13:39;12.70;99.90
19665;DHT22;9980;51.020;7.772;2022-10-30T04:16:21;12.60;99.90
19665;DHT22;9980;51.020;7.772;2022-10-30T04:19:14;12.60;99.90
19665;DHT22;9980;51.020;7.772;2022-10-30T04:21:47;12.60;99.90
19665;DHT22;9980;51.020;7.772;2022-10-30T04:24:41;12.60;99.90
19665;DHT22;9980;51.020;7.772;2022-10-30T04:27:15;12.50;99.90
19665;DHT22;9980;51.020;7.772;2022-10-30T04:30:11;12.60;99.90
19665;DHT22;9980;51.020;7.772;2022-10-30T04:32:56;12.50;99.90
19665;DHT22;9980;51.020;7.772;2022-10-30T04:35:43;12.50;99.90
19665;DHT22;9980;51.020;7.772;2022-10-30T04:38:22;12.50;99.90
19665;DHT22;9980;51.020;7.772;2022-10-30T04:41:11;12.40;99.90
19665;DHT22;9980;51.020;7.772;2022-10-30T04:43:59;12.40;99.90
19665;DHT22;9980;51.020;7.772;2022-10-30T04:46:46;12.40;99.90
19665;DHT22;9980;51.020;7.772;2022-10-30T04:49:26;12.40;99.90
19665;DHT22;9980;51.020;7.772;2022-10-30T04:52:13;12.30;99.90
19665;DHT22;9980;51.020;7.772;2022-10-30T04:54:53;12.30;99.90
19665;DHT22;9980;51.020;7.772;2022-10-30T04:57:40;12.30;99.90
19665;DHT22;9980;51.020;7.772;2022-10-30T05:00:21;12.30;99.90
19665;DHT22;9980;51.020;7.772;2022-10-30T05:03:23;12.20;99.90
19665;DHT22;9980;51.020;7.772;2022-10-30T05:06:02;12.20;99.90
19665;DHT22;9980;51.020;7.772;2022-10-30T05:08:58;12.20;99.90
19665;DHT22;9980;51.020;7.772;2022-10-30T05:11:37;12.10;99.90
19665;DHT22;9980;51.020;7.772;2022-10-30T05:14:43;12.10;99.90
19665;DHT22;9980;51.020;7.772;2022-10-30T05:17:17;12.10;99.90
19665;DHT22;9980;51.020;7.772;2022-10-30T05:20:11;12.00;99.90
19665;DHT22;9980;51.020;7.772;2022-10-30T05:22:54;12.00;99.90
19665;DHT22;9980;51.020;7.772;2022-10-30T05:25:48;12.00;99.90
19665;DHT22;9980;51.020;7.772;2022-10-30T05:28:29;11.90;99.90
19665;DHT22;9980;51.020;7.772;2022-10-30T05:31:16;11.90;99.90
19665;DHT22;9980;51.020;7.772;2022-10-30T05:34:16;11.80;99.90
19665;DHT22;9980;51.020;7.772;2022-10-30T05:37:11;11.80;99.90
19665;DHT22;9980;51.020;7.772;2022-10-30T05:39:52;11.80;99.90
19665;DHT22;9980;51.020;7.772;2022-10-30T05:42:44;11.80;99.90
19665;DHT22;9980;51.020;7.772;2022-10-30T05:45:25;11.70;99.90
19665;DHT22;9980;51.020;7.772;2022-10-30T05:48:19;11.70;99.90
19665;DHT22;9980;51.020;7.772;2022-10-30T05:50:57;11.70;99.90
19665;DHT22;9980;51.020;7.772;2022-10-30T05:53:56;11.70;99.90
19665;DHT22;9980;51.020;7.772;2022-10-30T05:56:31;11.60;99.90
19665;DHT22;9980;51.020;7.772;2022-10-30T05:59:25;11.60;99.90
19665;DHT22;9980;51.020;7.772;2022-10-30T06:01:58;11.50;99.90
19665;DHT22;9980;51.020;7.772;2022-10-30T06:04:52;11.50;99.90
19665;DHT22;9980;51.020;7.772;2022-10-30T06:07:26;11.50;99.90
19665;DHT22;9980;51.020;7.772;2022-10-30T06:10:19;11.50;99.90
19665;DHT22;9980;51.020;7.772;2022-10-30T06:13:12;11.40;99.90
19665;DHT22;9980;51.020;7.772;2022-10-30T06:16:04;11.40;99.90
19665;DHT22;9980;51.020;7.772;2022-10-30T06:19:04;11.40;99.90
19665;DHT22;9980;51.020;7.772;2022-10-30T06:21:59;11.30;99.90
19665;DHT22;9980;51.020;7.772;2022-10-30T06:24:45;11.30;99.90
19665;DHT22;9980;51.020;7.772;2022-10-30T06:27:50;11.30;99.90
19665;DHT22;9980;51.020;7.772;2022-10-30T06:30:31;11.20;99.90
19665;DHT22;9980;51.020;7.772;2022-10-30T06:33:25;11.20;99.90
19665;DHT22;9980;51.020;7.772;2022-10-30T06:35:59;11.20;99.90
19665;DHT22;9980;51.020;7.772;2022-10-30T06:38:52;11.20;99.90
19665;DHT22;9980;51.020;7.772;2022-10-30T06:41:35;11.10;99.90
19665;DHT22;9980;51.020;7.772;2022-10-30T06:44:50;11.10;99.90
19665;DHT22;9980;51.020;7.772;2022-10-30T06:47:24;11.10;99.90
19665;DHT22;9980;51.020;7.772;2022-10-30T06:50:19;11.10;99.90
19665;DHT22;9980;51.020;7.772;2022-10-30T06:53:01;11.10;99.90
19665;DHT22;9980;51.020;7.772;2022-10-30T06:55:58;11.10;99.90
19665;DHT22;9980;51.020;7.772;2022-10-30T06:59:01;11.00;99.90
19665;DHT22;9980;51.020;7.772;2022-10-30T07:01:57;11.00;99.90
19665;DHT22;9980;51.020;7.772;2022-10-30T07:04:54;11.00;99.90
19665;DHT22;9980;51.020;7.772;2022-10-30T07:07:48;11.00;99.90
19665;DHT22;9980;51.020;7.772;2022-10-30T07:10:22;11.00;99.90
19665;DHT22;9980;51.020;7.772;2022-10-30T07:13:42;11.00;99.90
19665;DHT22;9980;51.020;7.772;2022-10-30T07:16:54;11.00;99.90
19665;DHT22;9980;51.020;7.772;2022-10-30T07:19:54;11.00;99.90
19665;DHT22;9980;51.020;7.772;2022-10-30T07:22:28;11.00;99.90
19665;DHT22;9980;51.020;7.772;2022-10-30T07:25:22;11.00;99.90
19665;DHT22;9980;51.020;7.772;2022-10-30T07:28:19;11.00;99.90
19665;DHT22;9980;51.020;7.772;2022-10-30T07:31:45;11.00;99.90
19665;DHT22;9980;51.020;7.772;2022-10-30T07:34:53;11.00;99.90
19665;DHT22;9980;51.020;7.772;2022-10-30T07:38:05;11.10;99.90
19665;DHT22;9980;51.020;7.772;2022-10-30T07:40:53;11.10;99.90
19665;DHT22;9980;51.020;7.772;2022-10-30T07:43:55;11.20;99.90
19665;DHT22;9980;51.020;7.772;2022-10-30T07:46:47;11.20;99.90
19665;DHT22;9980;51.020;7.772;2022-10-30T07:50:04;11.30;99.90
19665;DHT22;9980;51.020;7.772;2022-10-30T07:52:45;11.40;99.90
19665;DHT22;9980;51.020;7.772;2022-10-30T07:55:34;11.40;99.90
19665;DHT22;9980;51.020;7.772;2022-10-30T07:58:33;11.50;99.90
19665;DHT22;9980;51.020;7.772;2022-10-30T08:02:00;11.60;99.90
19665;DHT22;9980;51.020;7.772;2022-10-30T08:05:00;11.70;99.90
19665;DHT22;9980;51.020;7.772;2022-10-30T08:08:13;11.80;99.90
19665;DHT22;9980;51.020;7.772;2022-10-30T08:11:06;11.90;99.90
19665;DHT22;9980;51.020;7.772;2022-10-30T08:13:52;12.00;99.90
19665;DHT22;9980;51.020;7.772;2022-10-30T08:16:33;12.10;99.90
19665;DHT22;9980;51.020;7.772;2022-10-30T08:19:26;12.20;99.90
19665;DHT22;9980;51.020;7.772;2022-10-30T08:22:00;12.30;99.90
19665;DHT22;9980;51.020;7.772;2022-10-30T08:25:02;12.40;99.90
19665;DHT22;9980;51.020;7.772;2022-10-30T08:27:35;12.50;99.90
19665;DHT22;9980;51.020;7.772;2022-10-30T08:30:32;12.60;99.90
19665;DHT22;9980;51.020;7.772;2022-10-30T08:33:17;12.80;99.90
19665;DHT22;9980;51.020;7.772;2022-10-30T08:36:30;12.90;99.90
19665;DHT22;9980;51.020;7.772;2022-10-30T08:39:10;13.00;99.90
19665;DHT22;9980;51.020;7.772;2022-10-30T08:42:05;13.10;99.90
19665;DHT22;9980;51.020;7.772;2022-10-30T08:44:47;13.30;99.90
19665;DHT22;9980;51.020;7.772;2022-10-30T08:47:33;13.40;99.90
19665;DHT22;9980;51.020;7.772;2022-10-30T08:50:14;13.50;99.90
19665;DHT22;9980;51.020;7.772;2022-10-30T08:53:08;13.60;99.90
19665;DHT22;9980;51.020;7.772;2022-10-30T08:55:52;13.80;99.90
19665;DHT22;9980;51.020;7.772;2022-10-30T08:59:08;13.90;99.90
19665;DHT22;9980;51.020;7.772;2022-10-30T09:01:41;14.10;99.90
19665;DHT22;9980;51.020;7.772;2022-10-30T09:05:03;14.20;99.90
19665;DHT22;9980;51.020;7.772;2022-10-30T09:08:10;14.40;99.90
19665;DHT22;9980;51.020;7.772;2022-10-30T09:11:19;14.50;99.90
19665;DHT22;9980;51.020;7.772;2022-10-30T09:14:00;14.70;99.90
19665;DHT22;9980;51.020;7.772;2022-10-30T09:16:46;14.80;99.90
19665;DHT22;9980;51.020;7.772;2022-10-30T09:19:28;15.00;99.90
19665;DHT22;9980;51.020;7.772;2022-10-30T09:22:16;15.10;99.90
19665;DHT22;9980;51.020;7.772;2022-10-30T09:24:56;15.30;99.90
19665;DHT22;9980;51.020;7.772;2022-10-30T09:27:55;15.40;99.90
19665;DHT22;9980;51.020;7.772;2022-10-30T09:30:55;15.60;99.90
19665;DHT22;9980;51.020;7.772;2022-10-30T09:33:48;15.80;99.90
19665;DHT22;9980;51.020;7.772;2022-10-30T09:36:48;16.00;99.90
19665;DHT22;9980;51.020;7.772;2022-10-30T09:39:42;16.10;99.90
19665;DHT22;9980;51.020;7.772;2022-10-30T09:45:43;16.50;99.90
19665;DHT22;9980;51.020;7.772;2022-10-30T09:49:02;16.60;99.90
19665;DHT22;9980;51.020;7.772;2022-10-30T09:52:20;16.80;99.90
19665;DHT22;9980;51.020;7.772;2022-10-30T09:55:33;17.00;99.90
19665;DHT22;9980;51.020;7.772;2022-10-30T10:02:03;17.40;99.90
19665;DHT22;9980;51.020;7.772;2022-10-30T10:05:27;17.50;99.90
19665;DHT22;9980;51.020;7.772;2022-10-30T10:08:38;17.70;99.90
19665;DHT22;9980;51.020;7.772;2022-10-30T10:11:52;17.90;99.90
19665;DHT22;9980;51.020;7.772;2022-10-30T10:14:39;18.10;99.90
19665;DHT22;9980;51.020;7.772;2022-10-30T10:17:33;18.30;99.90
19665;DHT22;9980;51.020;7.772;2022-10-30T10:23:38;18.60;99.90
19665;DHT22;9980;51.020;7.772;2022-10-30T10:30:28;19.10;99.90
19665;DHT22;9980;51.020;7.772;2022-10-30T10:33:28;19.20;99.90
19665;DHT22;9980;51.020;7.772;2022-10-30T10:36:39;19.50;99.90
19665;DHT22;9980;51.020;7.772;2022-10-30T10:39:38;19.60;99.90
19665;DHT22;9980;51.020;7.772;2022-10-30T10:49:31;20.10;99.90
19665;DHT22;9980;51.020;7.772;2022-10-30T10:52:39;20.30;99.60
19665;DHT22;9980;51.020;7.772;2022-10-30T10:55:35;20.50;99.10
19665;DHT22;9980;51.020;7.772;2022-10-30T10:58:30;20.60;98.90
19665;DHT22;9980;51.020;7.772;2022-10-30T11:01:39;20.80;98.60
19665;DHT22;9980;51.020;7.772;2022-10-30T11:04:39;20.90;98.40
19665;DHT22;9980;51.020;7.772;2022-10-30T11:07:37;21.10;98.00
19665;DHT22;9980;51.020;7.772;2022-10-30T11:10:24;21.20;98.10
19665;DHT22;9980;51.020;7.772;2022-10-30T11:13:18;21.30;98.10
19665;DHT22;9980;51.020;7.772;2022-10-30T11:19:29;21.60;97.20
19665;DHT22;9980;51.020;7.772;2022-10-30T11:22:17;21.70;96.90
19665;DHT22;9980;51.020;7.772;2022-10-30T11:25:21;21.80;96.90
19665;DHT22;9980;51.020;7.772;2022-10-30T11:28:04;22.00;96.70
19665;DHT22;9980;51.020;7.772;2022-10-30T11:31:22;22.10;96.30
19665;DHT22;9980;51.020;7.772;2022-10-30T11:37:03;22.30;95.60
19665;DHT22;9980;51.020;7.772;2022-10-30T11:40:04;22.40;94.90
19665;DHT22;9980;51.020;7.772;2022-10-30T11:43:03;22.60;94.70
19665;DHT22;9980;51.020;7.772;2022-10-30T11:45:44;22.70;94.60
19665;DHT22;9980;51.020;7.772;2022-10-30T11:48:43;22.80;94.60
19665;DHT22;9980;51.020;7.772;2022-10-30T11:51:29;22.80;93.90
19665;DHT22;9980;51.020;7.772;2022-10-30T11:54:26;23.00;94.00
19665;DHT22;9980;51.020;7.772;2022-10-30T11:57:03;23.00;93.50
19665;DHT22;9980;51.020;7.772;2022-10-30T12:00:13;23.10;93.60
19665;DHT22;9980;51.020;7.772;2022-10-30T12:02:55;23.20;92.80
19665;DHT22;9980;51.020;7.772;2022-10-30T12:05:51;23.30;92.80
19665;DHT22;9980;51.020;7.772;2022-10-30T12:08:32;23.30;92.90
19665;DHT22;9980;51.020;7.772;2022-10-30T12:11:31;23.40;92.70
19665;DHT22;9980;51.020;7.772;2022-10-30T12:14:20;23.50;91.70
19665;DHT22;9980;51.020;7.772;2022-10-30T12:17:13;23.60;91.90
19665;DHT22;9980;51.020;7.772;2022-10-30T12:19:55;23.60;91.50
19665;DHT22;9980;51.020;7.772;2022-10-30T12:22:43;23.70;92.00
19665;DHT22;9980;51.020;7.772;2022-10-30T12:25:28;23.70;91.10
19665;DHT22;9980;51.020;7.772;2022-10-30T12:28:19;23.70;90.70
19665;DHT22;9980;51.020;7.772;2022-10-30T12:31:15;23.70;90.80
19665;DHT22;9980;51.020;7.772;2022-10-30T12:34:36;23.80;90.80
19665;DHT22;9980;51.020;7.772;2022-10-30T12:40:30;23.80;91.00
19665;DHT22;9980;51.020;7.772;2022-10-30T12:43:16;23.80;90.00
19665;DHT22;9980;51.020;7.772;2022-10-30T12:53:26;23.90;89.90
19665;DHT22;9980;51.020;7.772;2022-10-30T12:55:54;24.00;89.50
19665;DHT22;9980;51.020;7.772;2022-10-30T12:59:15;24.00;88.80
19665;DHT22;9980;51.020;7.772;2022-10-30T13:02:00;24.10;89.10
19665;DHT22;9980;51.020;7.772;2022-10-30T13:08:41;24.20;87.30
19665;DHT22;9980;51.020;7.772;2022-10-30T13:11:50;24.20;88.60
19665;DHT22;9980;51.020;7.772;2022-10-30T13:17:32;24.30;88.30
19665;DHT22;9980;51.020;7.772;2022-10-30T13:20:13;24.30;86.10
19665;DHT22;9980;51.020;7.772;2022-10-30T13:23:13;24.30;86.40
19665;DHT22;9980;51.020;7.772;2022-10-30T13:26:12;24.30;85.80
19665;DHT22;9980;51.020;7.772;2022-10-30T13:42:27;24.20;83.50
19665;DHT22;9980;51.020;7.772;2022-10-30T13:45:25;24.20;84.80
19665;DHT22;9980;51.020;7.772;2022-10-30T13:51:51;24.00;83.60
19665;DHT22;9980;51.020;7.772;2022-10-30T13:54:59;24.00;84.30
19665;DHT22;9980;51.020;7.772;2022-10-30T13:57:45;24.00;84.10
19665;DHT22;9980;51.020;7.772;2022-10-30T14:00:48;23.90;83.90
19665;DHT22;9980;51.020;7.772;2022-10-30T14:13:27;23.90;84.50
19665;DHT22;9980;51.020;7.772;2022-10-30T14:16:42;23.80;85.00
19665;DHT22;9980;51.020;7.772;2022-10-30T14:28:46;23.80;84.30
19665;DHT22;9980;51.020;7.772;2022-10-30T14:31:35;23.80;84.10
19665;DHT22;9980;51.020;7.772;2022-10-30T14:34:42;23.70;83.00
19665;DHT22;9980;51.020;7.772;2022-10-30T14:43:38;23.60;82.50
19665;DHT22;9980;51.020;7.772;2022-10-30T14:49:48;23.60;82.00
19665;DHT22;9980;51.020;7.772;2022-10-30T14:58:41;23.40;82.30
19665;DHT22;9980;51.020;7.772;2022-10-30T15:01:38;23.40;82.90
19665;DHT22;9980;51.020;7.772;2022-10-30T15:14:58;23.20;84.10
19665;DHT22;9980;51.020;7.772;2022-10-30T15:17:44;23.10;85.10
19665;DHT22;9980;51.020;7.772;2022-10-30T15:20:34;23.00;84.60
19665;DHT22;9980;51.020;7.772;2022-10-30T15:23:28;23.00;84.10
19665;DHT22;9980;51.020;7.772;2022-10-30T15:26:22;22.90;84.50
19665;DHT22;9980;51.020;7.772;2022-10-30T15:29:06;22.80;85.20
19665;DHT22;9980;51.020;7.772;2022-10-30T15:32:03;22.70;85.40
19665;DHT22;9980;51.020;7.772;2022-10-30T15:35:17;22.70;86.60
19665;DHT22;9980;51.020;7.772;2022-10-30T15:38:18;22.60;87.10
19665;DHT22;9980;51.020;7.772;2022-10-30T15:41:00;22.40;87.20
19665;DHT22;9980;51.020;7.772;2022-10-30T15:43:55;22.40;88.10
19665;DHT22;9980;51.020;7.772;2022-10-30T15:46:31;22.30;88.00
19665;DHT22;9980;51.020;7.772;2022-10-30T15:49:31;22.20;88.20
19665;DHT22;9980;51.020;7.772;2022-10-30T15:52:18;22.00;87.00
19665;DHT22;9980;51.020;7.772;2022-10-30T15:55:17;22.00;87.60
19665;DHT22;9980;51.020;7.772;2022-10-30T15:58:04;21.90;88.80
19665;DHT22;9980;51.020;7.772;2022-10-30T16:00:59;21.80;88.80
19665;DHT22;9980;51.020;7.772;2022-10-30T16:03:40;21.70;89.00
19665;DHT22;9980;51.020;7.772;2022-10-30T16:06:37;21.50;89.30
19665;DHT22;9980;51.020;7.772;2022-10-30T16:09:17;21.40;90.00
19665;DHT22;9980;51.020;7.772;2022-10-30T16:12:04;21.30;90.00
19665;DHT22;9980;51.020;7.772;2022-10-30T16:14:45;21.20;90.10
19665;DHT22;9980;51.020;7.772;2022-10-30T16:17:40;21.00;90.20
19665;DHT22;9980;51.020;7.772;2022-10-30T16:20:15;20.90;90.10
19665;DHT22;9980;51.020;7.772;2022-10-30T16:23:11;20.80;90.50
19665;DHT22;9980;51.020;7.772;2022-10-30T16:25:57;20.60;90.70
19665;DHT22;9980;51.020;7.772;2022-10-30T16:28:46;20.50;90.80
19665;DHT22;9980;51.020;7.772;2022-10-30T16:31:20;20.40;91.00
19665;DHT22;9980;51.020;7.772;2022-10-30T16:37:01;20.20;91.20
19665;DHT22;9980;51.020;7.772;2022-10-30T16:39:59;20.10;91.30
19665;DHT22;9980;51.020;7.772;2022-10-30T16:42:53;19.90;91.50
19665;DHT22;9980;51.020;7.772;2022-10-30T16:45:47;19.80;91.50
19665;DHT22;9980;51.020;7.772;2022-10-30T16:48:32;19.70;91.40
19665;DHT22;9980;51.020;7.772;2022-10-30T16:51:21;19.60;91.60
19665;DHT22;9980;51.020;7.772;2022-10-30T16:54:02;19.50;91.70
19665;DHT22;9980;51.020;7.772;2022-10-30T16:56:52;19.40;91.70
19665;DHT22;9980;51.020;7.772;2022-10-30T16:59:37;19.30;91.90
19665;DHT22;9980;51.020;7.772;2022-10-30T17:02:43;19.20;92.00
19665;DHT22;9980;51.020;7.772;2022-10-30T17:05:32;19.10;92.20
19665;DHT22;9980;51.020;7.772;2022-10-30T17:08:40;19.10;92.20
19665;DHT22;9980;51.020;7.772;2022-10-30T17:11:18;19.00;92.40
19665;DHT22;9980;51.020;7.772;2022-10-30T17:14:18;18.90;92.50
19665;DHT22;9980;51.020;7.772;2022-10-30T17:16:57;18.80;92.60
19665;DHT22;9980;51.020;7.772;2022-10-30T17:19:55;18.70;92.60
19665;DHT22;9980;51.020;7.772;2022-10-30T17:22:33;18.60;92.80
19665;DHT22;9980;51.020;7.772;2022-10-30T17:25:36;18.60;92.80
19665;DHT22;9980;51.020;7.772;2022-10-30T17:28:37;18.50;93.00
19665;DHT22;9980;51.020;7.772;2022-10-30T17:34:18;18.30;93.00
19665;DHT22;9980;51.020;7.772;2022-10-30T17:37:13;18.30;93.00
19665;DHT22;9980;51.020;7.772;2022-10-30T17:39:55;18.20;93.20
19665;DHT22;9980;51.020;7.772;2022-10-30T17:42:49;18.10;93.10
19665;DHT22;9980;51.020;7.772;2022-10-30T17:45:29;18.00;93.30
19665;DHT22;9980;51.020;7.772;2022-10-30T17:48:17;18.00;93.30
19665;DHT22;9980;51.020;7.772;2022-10-30T17:51:05;17.90;93.30
19665;DHT22;9980;51.020;7.772;2022-10-30T17:53:52;17.80;93.40
19665;DHT22;9980;51.020;7.772;2022-10-30T17:56:30;17.70;93.40
19665;DHT22;9980;51.020;7.772;2022-10-30T17:59:26;17.70;93.60
19665;DHT22;9980;51.020;7.772;2022-10-30T18:01:59;17.60;93.70
19665;DHT22;9980;51.020;7.772;2022-10-30T18:04:53;17.50;93.80
19665;DHT22;9980;51.020;7.772;2022-10-30T18:07:34;17.40;94.00
19665;DHT22;9980;51.020;7.772;2022-10-30T18:10:21;17.30;93.90
19665;DHT22;9980;51.020;7.772;2022-10-30T18:13:01;17.20;94.00
19665;DHT22;9980;51.020;7.772;2022-10-30T18:15:55;17.20;94.00
19665;DHT22;9980;51.020;7.772;2022-10-30T18:18:37;17.10;94.10
19665;DHT22;9980;51.020;7.772;2022-10-30T18:21:24;17.00;94.20
19665;DHT22;9980;51.020;7.772;2022-10-30T18:24:10;16.90;94.30
19665;DHT22;9980;51.020;7.772;2022-10-30T18:26:58;16.90;94.40
19665;DHT22;9980;51.020;7.772;2022-10-30T18:29:38;16.80;94.40
19665;DHT22;9980;51.020;7.772;2022-10-30T18:32:32;16.70;94.40
19665;DHT22;9980;51.020;7.772;2022-10-30T18:35:34;16.70;94.60
19665;DHT22;9980;51.020;7.772;2022-10-30T18:38:30;16.60;94.70
19665;DHT22;9980;51.020;7.772;2022-10-30T18:41:03;16.50;94.80
19665;DHT22;9980;51.020;7.772;2022-10-30T18:43:58;16.40;94.80
19665;DHT22;9980;51.020;7.772;2022-10-30T18:46:32;16.40;94.90
19665;DHT22;9980;51.020;7.772;2022-10-30T18:49:27;16.40;94.80
19665;DHT22;9980;51.020;7.772;2022-10-30T18:52:03;16.30;95.00
19665;DHT22;9980;51.020;7.772;2022-10-30T18:54:57;16.20;94.90
19665;DHT22;9980;51.020;7.772;2022-10-30T18:57:37;16.10;95.10
19665;DHT22;9980;51.020;7.772;2022-10-30T19:00:32;16.10;95.10
19665;DHT22;9980;51.020;7.772;2022-10-30T19:03:33;16.00;95.20
19665;DHT22;9980;51.020;7.772;2022-10-30T19:06:23;15.90;95.10
19665;DHT22;9980;51.020;7.772;2022-10-30T19:09:04;15.80;95.30
19665;DHT22;9980;51.020;7.772;2022-10-30T19:11:52;15.80;95.30
19665;DHT22;9980;51.020;7.772;2022-10-30T19:14:39;15.80;95.40
19665;DHT22;9980;51.020;7.772;2022-10-30T19:17:35;15.70;95.40
19665;DHT22;9980;51.020;7.772;2022-10-30T19:20:08;15.60;95.40
19665;DHT22;9980;51.020;7.772;2022-10-30T19:23:24;15.50;95.50
19665;DHT22;9980;51.020;7.772;2022-10-30T19:25:58;15.50;95.60
19665;DHT22;9980;51.020;7.772;2022-10-30T19:28:52;15.40;95.50
19665;DHT22;9980;51.020;7.772;2022-10-30T19:31:32;15.40;95.60
19665;DHT22;9980;51.020;7.772;2022-10-30T19:34:19;15.30;95.60
19665;DHT22;9980;51.020;7.772;2022-10-30T19:36:59;15.30;95.80
19665;DHT22;9980;51.020;7.772;2022-10-30T19:39:46;15.20;95.70
19665;DHT22;9980;51.020;7.772;2022-10-30T19:42:26;15.10;95.80
19665;DHT22;9980;51.020;7.772;2022-10-30T19:45:14;15.10;95.80
19665;DHT22;9980;51.020;7.772;2022-10-30T19:47:57;15.00;95.90
19665;DHT22;9980;51.020;7.772;2022-10-30T19:50:46;14.90;95.80
19665;DHT22;9980;51.020;7.772;2022-10-30T19:53:26;14.90;96.00
19665;DHT22;9980;51.020;7.772;2022-10-30T19:56:20;14.90;95.90
19665;DHT22;9980;51.020;7.772;2022-10-30T19:59:01;14.80;96.10
19665;DHT22;9980;51.020;7.772;2022-10-30T20:01:55;14.80;96.10
19665;DHT22;9980;51.020;7.772;2022-10-30T20:04:29;14.70;96.10
19665;DHT22;9980;51.020;7.772;2022-10-30T20:07:23;14.60;96.10
19665;DHT22;9980;51.020;7.772;2022-10-30T20:09:56;14.60;96.10
19665;DHT22;9980;51.020;7.772;2022-10-30T20:12:50;14.50;96.10
19665;DHT22;9980;51.020;7.772;2022-10-30T20:15:24;14.50;96.20
19665;DHT22;9980;51.020;7.772;2022-10-30T20:18:21;14.40;96.20
19665;DHT22;9980;51.020;7.772;2022-10-30T20:21:11;14.40;96.30